sensor_id;sensor_type;location;lat;lon;timestamp;temperature;humidity
2435;DHT22;1228;51.022;6.764;2023-04-25T00:01:45;5.90;1.00
2435;DHT22;1228;51.022;6.764;2023-04-25T00:04:11;5.80;1.00
2435;DHT22;1228;51.022;6.764;2023-04-25T00:06:37;5.80;1.00
2435;DHT22;1228;51.022;6.764;2023-04-25T00:09:06;5.80;1.00
2435;DHT22;1228;51.022;6.764;2023-04-25T00:11:36;5.70;1.00
2435;DHT22;1228;51.022;6.764;2023-04-25T00:14:03;5.70;1.00
2435;DHT22;1228;51.022;6.764;2023-04-25T00:16:29;5.70;1.00
2435;DHT22;1228;51.022;6.764;2023-04-25T00:18:58;5.60;1.00
2435;DHT22;1228;51.022;6.764;2023-04-25T00:21:24;5.60;13.70
2435;DHT22;1228;51.022;6.764;2023-04-25T00:23:50;5.60;34.30
2435;DHT22;1228;51.022;6.764;2023-04-25T00:26:15;5.60;37.70
2435;DHT22;1228;51.022;6.764;2023-04-25T00:28:41;5.60;46.30
2435;DHT22;1228;51.022;6.764;2023-04-25T00:31:06;5.60;35.80
2435;DHT22;1228;51.022;6.764;2023-04-25T00:33:32;5.70;23.10
2435;DHT22;1228;51.022;6.764;2023-04-25T00:35:58;5.60;15.20
2435;DHT22;1228;51.022;6.764;2023-04-25T00:38:23;5.60;16.10
2435;DHT22;1228;51.022;6.764;2023-04-25T00:40:49;5.60;12.20
2435;DHT22;1228;51.022;6.764;2023-04-25T00:43:15;5.60;14.60
2435;DHT22;1228;51.022;6.764;2023-04-25T00:45:40;5.60;15.90
2435;DHT22;1228;51.022;6.764;2023-04-25T00:48:06;5.60;17.30
2435;DHT22;1228;51.022;6.764;2023-04-25T00:50:33;5.60;25.10
2435;DHT22;1228;51.022;6.764;2023-04-25T00:52:59;5.60;17.70
2435;DHT22;1228;51.022;6.764;2023-04-25T00:55:26;5.50;30.20
2435;DHT22;1228;51.022;6.764;2023-04-25T00:57:51;5.40;53.00
2435;DHT22;1228;51.022;6.764;2023-04-25T01:00:18;5.40;67.10
2435;DHT22;1228;51.022;6.764;2023-04-25T01:02:44;5.40;81.20
2435;DHT22;1228;51.022;6.764;2023-04-25T01:05:10;5.40;90.20
2435;DHT22;1228;51.022;6.764;2023-04-25T01:07:38;5.30;99.90
2435;DHT22;1228;51.022;6.764;2023-04-25T01:10:04;5.30;99.90
2435;DHT22;1228;51.022;6.764;2023-04-25T01:12:31;5.30;99.90
2435;DHT22;1228;51.022;6.764;2023-04-25T01:14:57;5.30;99.90
2435;DHT22;1228;51.022;6.764;2023-04-25T01:17:22;5.30;99.90
2435;DHT22;1228;51.022;6.764;2023-04-25T01:19:49;5.30;99.90
2435;DHT22;1228;51.022;6.764;2023-04-25T01:22:16;5.30;99.90
2435;DHT22;1228;51.022;6.764;2023-04-25T01:24:42;5.20;99.90
2435;DHT22;1228;51.022;6.764;2023-04-25T01:27:08;5.20;99.90
2435;DHT22;1228;51.022;6.764;2023-04-25T01:29:35;5.20;99.90
2435;DHT22;1228;51.022;6.764;2023-04-25T01:32:01;5.20;99.90
2435;DHT22;1228;51.022;6.764;2023-04-25T01:34:27;5.10;99.90
2435;DHT22;1228;51.022;6.764;2023-04-25T01:36:53;5.10;99.90
2435;DHT22;1228;51.022;6.764;2023-04-25T01:39:19;5.00;99.90
2435;DHT22;1228;51.022;6.764;2023-04-25T01:41:48;5.00;99.90
2435;DHT22;1228;51.022;6.764;2023-04-25T01:44:15;5.00;99.90
2435;DHT22;1228;51.022;6.764;2023-04-25T01:46:41;5.00;99.90
2435;DHT22;1228;51.022;6.764;2023-04-25T01:49:06;4.90;99.90
2435;DHT22;1228;51.022;6.764;2023-04-25T01:51:32;4.90;99.90
2435;DHT22;1228;51.022;6.764;2023-04-25T01:53:58;4.80;99.90
2435;DHT22;1228;51.022;6.764;2023-04-25T01:56:24;4.80;99.90
2435;DHT22;1228;51.022;6.764;2023-04-25T01:58:50;4.80;99.90
2435;DHT22;1228;51.022;6.764;2023-04-25T02:01:16;4.80;99.90
2435;DHT22;1228;51.022;6.764;2023-04-25T02:03:43;4.80;99.90
2435;DHT22;1228;51.022;6.764;2023-04-25T02:06:08;4.90;99.90
2435;DHT22;1228;51.022;6.764;2023-04-25T02:08:34;4.90;99.90
2435;DHT22;1228;51.022;6.764;2023-04-25T02:11:00;5.00;99.90
2435;DHT22;1228;51.022;6.764;2023-04-25T02:13:25;5.10;99.90
2435;DHT22;1228;51.022;6.764;2023-04-25T02:15:51;5.20;99.90
2435;DHT22;1228;51.022;6.764;2023-04-25T02:18:17;5.30;99.90
2435;DHT22;1228;51.022;6.764;2023-04-25T02:20:43;5.30;99.90
2435;DHT22;1228;51.022;6.764;2023-04-25T02:23:08;5.40;99.90
2435;DHT22;1228;51.022;6.764;2023-04-25T02:25:34;5.50;99.90
2435;DHT22;1228;51.022;6.764;2023-04-25T02:28:00;5.60;99.90
2435;DHT22;1228;51.022;6.764;2023-04-25T02:30:25;5.70;99.90
2435;DHT22;1228;51.022;6.764;2023-04-25T02:32:51;5.70;99.90
2435;DHT22;1228;51.022;6.764;2023-04-25T02:35:17;5.80;99.90
2435;DHT22;1228;51.022;6.764;2023-04-25T02:37:42;5.90;99.90
2435;DHT22;1228;51.022;6.764;2023-04-25T02:40:09;5.90;99.90
2435;DHT22;1228;51.022;6.764;2023-04-25T02:42:35;6.00;99.90
2435;DHT22;1228;51.022;6.764;2023-04-25T02:45:01;6.00;99.90
2435;DHT22;1228;51.022;6.764;2023-04-25T02:47:26;6.00;99.90
2435;DHT22;1228;51.022;6.764;2023-04-25T02:49:52;6.00;99.90
2435;DHT22;1228;51.022;6.764;2023-04-25T02:52:17;6.00;99.90
2435;DHT22;1228;51.022;6.764;2023-04-25T02:54:43;6.00;99.90
2435;DHT22;1228;51.022;6.764;2023-04-25T02:57:09;6.00;99.90
2435;DHT22;1228;51.022;6.764;2023-04-25T02:59:34;6.00;99.90
2435;DHT22;1228;51.022;6.764;2023-04-25T03:02:00;6.00;99.90
2435;DHT22;1228;51.022;6.764;2023-04-25T03:04:26;6.00;99.90
2435;DHT22;1228;51.022;6.764;2023-04-25T03:06:52;6.00;99.90
2435;DHT22;1228;51.022;6.764;2023-04-25T03:09:19;6.00;99.90
2435;DHT22;1228;51.022;6.764;2023-04-25T03:11:45;6.00;99.90
2435;DHT22;1228;51.022;6.764;2023-04-25T03:14:11;5.90;99.90
2435;DHT22;1228;51.022;6.764;2023-04-25T03:16:37;6.00;99.90
2435;DHT22;1228;51.022;6.764;2023-04-25T03:19:03;6.00;99.90
2435;DHT22;1228;51.022;6.764;2023-04-25T03:21:30;6.10;99.90
2435;DHT22;1228;51.022;6.764;2023-04-25T03:23:58;6.00;99.90
2435;DHT22;1228;51.022;6.764;2023-04-25T03:26:24;6.00;99.90
2435;DHT22;1228;51.022;6.764;2023-04-25T03:28:50;6.00;99.90
2435;DHT22;1228;51.022;6.764;2023-04-25T03:31:15;6.10;99.90
2435;DHT22;1228;51.022;6.764;2023-04-25T03:33:41;6.10;99.90
2435;DHT22;1228;51.022;6.764;2023-04-25T03:36:07;6.10;99.90
2435;DHT22;1228;51.022;6.764;2023-04-25T03:38:33;6.10;99.90
2435;DHT22;1228;51.022;6.764;2023-04-25T03:40:58;6.10;99.90
2435;DHT22;1228;51.022;6.764;2023-04-25T03:43:24;6.10;99.90
2435;DHT22;1228;51.022;6.764;2023-04-25T03:45:50;6.10;99.90
2435;DHT22;1228;51.022;6.764;2023-04-25T03:48:15;6.20;99.90
2435;DHT22;1228;51.022;6.764;2023-04-25T03:50:41;6.20;99.90
2435;DHT22;1228;51.022;6.764;2023-04-25T03:53:07;6.20;89.90
2435;DHT22;1228;51.022;6.764;2023-04-25T03:55:32;6.20;83.20
2435;DHT22;1228;51.022;6.764;2023-04-25T03:57:58;6.20;65.10
2435;DHT22;1228;51.022;6.764;2023-04-25T04:00:24;6.20;42.50
2435;DHT22;1228;51.022;6.764;2023-04-25T04:02:50;6.20;30.00
2435;DHT22;1228;51.022;6.764;2023-04-25T04:05:16;6.20;25.80
2435;DHT22;1228;51.022;6.764;2023-04-25T04:07:41;6.20;34.10
2435;DHT22;1228;51.022;6.764;2023-04-25T04:10:09;6.20;26.20
2435;DHT22;1228;51.022;6.764;2023-04-25T04:12:35;6.20;28.20
2435;DHT22;1228;51.022;6.764;2023-04-25T04:15:04;6.20;36.50
2435;DHT22;1228;51.022;6.764;2023-04-25T04:17:30;6.30;38.50
2435;DHT22;1228;51.022;6.764;2023-04-25T04:19:56;6.30;44.50
2435;DHT22;1228;51.022;6.764;2023-04-25T04:22:22;6.30;44.50
2435;DHT22;1228;51.022;6.764;2023-04-25T04:24:48;6.30;40.50
2435;DHT22;1228;51.022;6.764;2023-04-25T04:27:15;6.30;52.90
2435;DHT22;1228;51.022;6.764;2023-04-25T04:29:43;6.30;59.20
2435;DHT22;1228;51.022;6.764;2023-04-25T04:32:08;6.30;75.10
2435;DHT22;1228;51.022;6.764;2023-04-25T04:34:34;6.30;78.20
2435;DHT22;1228;51.022;6.764;2023-04-25T04:37:00;6.30;56.50
2435;DHT22;1228;51.022;6.764;2023-04-25T04:39:26;6.30;64.30
2435;DHT22;1228;51.022;6.764;2023-04-25T04:41:51;6.30;72.70
2435;DHT22;1228;51.022;6.764;2023-04-25T04:44:17;6.30;82.80
2435;DHT22;1228;51.022;6.764;2023-04-25T04:46:43;6.30;70.60
2435;DHT22;1228;51.022;6.764;2023-04-25T04:49:10;6.30;80.20
2435;DHT22;1228;51.022;6.764;2023-04-25T04:51:36;6.30;90.00
2435;DHT22;1228;51.022;6.764;2023-04-25T04:54:02;6.30;68.80
2435;DHT22;1228;51.022;6.764;2023-04-25T04:56:29;6.40;75.90
2435;DHT22;1228;51.022;6.764;2023-04-25T04:58:57;6.40;73.20
2435;DHT22;1228;51.022;6.764;2023-04-25T05:01:23;6.40;61.40
2435;DHT22;1228;51.022;6.764;2023-04-25T05:03:48;6.50;55.30
2435;DHT22;1228;51.022;6.764;2023-04-25T05:06:15;6.50;50.50
2435;DHT22;1228;51.022;6.764;2023-04-25T05:08:41;6.50;35.50
2435;DHT22;1228;51.022;6.764;2023-04-25T05:11:07;6.60;34.90
2435;DHT22;1228;51.022;6.764;2023-04-25T05:13:32;6.70;30.10
2435;DHT22;1228;51.022;6.764;2023-04-25T05:15:58;6.80;28.40
2435;DHT22;1228;51.022;6.764;2023-04-25T05:18:23;6.80;12.60
2435;DHT22;1228;51.022;6.764;2023-04-25T05:20:49;6.90;4.20
2435;DHT22;1228;51.022;6.764;2023-04-25T05:23:14;7.00;1.00
2435;DHT22;1228;51.022;6.764;2023-04-25T05:25:40;7.00;1.00
2435;DHT22;1228;51.022;6.764;2023-04-25T05:28:06;7.10;1.00
2435;DHT22;1228;51.022;6.764;2023-04-25T05:30:32;7.20;1.00
2435;DHT22;1228;51.022;6.764;2023-04-25T05:32:57;7.30;1.00
2435;DHT22;1228;51.022;6.764;2023-04-25T05:35:23;7.40;1.00
2435;DHT22;1228;51.022;6.764;2023-04-25T05:37:48;7.50;1.00
2435;DHT22;1228;51.022;6.764;2023-04-25T05:40:14;7.60;99.90
2435;DHT22;1228;51.022;6.764;2023-04-25T05:42:40;7.70;99.90
2435;DHT22;1228;51.022;6.764;2023-04-25T05:45:06;7.80;99.90
2435;DHT22;1228;51.022;6.764;2023-04-25T05:47:31;7.70;1.00
2435;DHT22;1228;51.022;6.764;2023-04-25T05:49:57;7.70;1.90
2435;DHT22;1228;51.022;6.764;2023-04-25T05:52:22;7.80;99.90
2435;DHT22;1228;51.022;6.764;2023-04-25T05:54:48;7.70;1.00
2435;DHT22;1228;51.022;6.764;2023-04-25T05:57:24;7.70;1.00
2435;DHT22;1228;51.022;6.764;2023-04-25T05:59:51;7.80;99.90
2435;DHT22;1228;51.022;6.764;2023-04-25T06:02:17;7.90;99.90
2435;DHT22;1228;51.022;6.764;2023-04-25T06:04:43;8.10;1.00
2435;DHT22;1228;51.022;6.764;2023-04-25T06:07:09;8.40;1.00
2435;DHT22;1228;51.022;6.764;2023-04-25T06:09:34;8.70;38.20
2435;DHT22;1228;51.022;6.764;2023-04-25T06:12:00;8.90;1.00
2435;DHT22;1228;51.022;6.764;2023-04-25T06:14:27;8.80;1.00
2435;DHT22;1228;51.022;6.764;2023-04-25T06:16:52;9.00;1.00
2435;DHT22;1228;51.022;6.764;2023-04-25T06:19:18;9.00;1.00
2435;DHT22;1228;51.022;6.764;2023-04-25T06:21:44;9.10;1.00
2435;DHT22;1228;51.022;6.764;2023-04-25T06:24:10;9.00;1.00
2435;DHT22;1228;51.022;6.764;2023-04-25T06:26:35;9.00;1.00
2435;DHT22;1228;51.022;6.764;2023-04-25T06:29:01;9.00;1.00
2435;DHT22;1228;51.022;6.764;2023-04-25T06:31:27;9.00;1.00
2435;DHT22;1228;51.022;6.764;2023-04-25T06:33:54;8.90;1.00
2435;DHT22;1228;51.022;6.764;2023-04-25T06:36:23;8.80;1.00
2435;DHT22;1228;51.022;6.764;2023-04-25T06:38:53;8.90;1.00
2435;DHT22;1228;51.022;6.764;2023-04-25T06:41:20;8.90;1.00
2435;DHT22;1228;51.022;6.764;2023-04-25T06:43:45;8.90;1.00
2435;DHT22;1228;51.022;6.764;2023-04-25T06:46:11;9.00;1.00
2435;DHT22;1228;51.022;6.764;2023-04-25T06:48:37;9.20;1.00
2435;DHT22;1228;51.022;6.764;2023-04-25T06:51:03;9.30;1.00
2435;DHT22;1228;51.022;6.764;2023-04-25T06:53:28;9.30;1.00
2435;DHT22;1228;51.022;6.764;2023-04-25T06:55:54;9.40;1.00
2435;DHT22;1228;51.022;6.764;2023-04-25T06:58:20;9.40;1.00
2435;DHT22;1228;51.022;6.764;2023-04-25T07:00:46;9.50;1.00
2435;DHT22;1228;51.022;6.764;2023-04-25T07:03:11;9.70;1.00
2435;DHT22;1228;51.022;6.764;2023-04-25T07:05:37;9.70;1.00
2435;DHT22;1228;51.022;6.764;2023-04-25T07:08:02;9.70;1.00
2435;DHT22;1228;51.022;6.764;2023-04-25T07:10:28;9.80;1.00
2435;DHT22;1228;51.022;6.764;2023-04-25T07:12:54;10.00;1.00
2435;DHT22;1228;51.022;6.764;2023-04-25T07:15:19;10.10;1.00
2435;DHT22;1228;51.022;6.764;2023-04-25T07:17:45;10.10;1.00
2435;DHT22;1228;51.022;6.764;2023-04-25T07:20:11;10.10;1.00
2435;DHT22;1228;51.022;6.764;2023-04-25T07:22:37;10.30;1.00
2435;DHT22;1228;51.022;6.764;2023-04-25T07:25:02;10.20;1.00
2435;DHT22;1228;51.022;6.764;2023-04-25T07:27:29;10.10;1.00
2435;DHT22;1228;51.022;6.764;2023-04-25T07:29:55;10.10;1.00
2435;DHT22;1228;51.022;6.764;2023-04-25T07:32:21;10.10;1.00
2435;DHT22;1228;51.022;6.764;2023-04-25T07:34:46;10.30;1.00
2435;DHT22;1228;51.022;6.764;2023-04-25T07:37:12;10.40;1.00
2435;DHT22;1228;51.022;6.764;2023-04-25T07:39:39;10.60;1.00
2435;DHT22;1228;51.022;6.764;2023-04-25T07:42:05;10.60;1.00
2435;DHT22;1228;51.022;6.764;2023-04-25T07:44:33;10.60;1.00
2435;DHT22;1228;51.022;6.764;2023-04-25T07:47:04;10.50;1.00
2435;DHT22;1228;51.022;6.764;2023-04-25T07:49:31;10.50;1.00
2435;DHT22;1228;51.022;6.764;2023-04-25T07:51:56;10.70;1.00
2435;DHT22;1228;51.022;6.764;2023-04-25T07:54:22;10.90;1.00
2435;DHT22;1228;51.022;6.764;2023-04-25T07:56:47;11.00;99.90
2435;DHT22;1228;51.022;6.764;2023-04-25T07:59:13;11.00;99.90
2435;DHT22;1228;51.022;6.764;2023-04-25T08:01:38;11.10;99.90
2435;DHT22;1228;51.022;6.764;2023-04-25T08:04:04;11.30;99.90
2435;DHT22;1228;51.022;6.764;2023-04-25T08:06:30;11.50;99.90
2435;DHT22;1228;51.022;6.764;2023-04-25T08:08:56;11.50;99.90
2435;DHT22;1228;51.022;6.764;2023-04-25T08:11:22;11.30;99.90
2435;DHT22;1228;51.022;6.764;2023-04-25T08:13:47;11.50;99.90
2435;DHT22;1228;51.022;6.764;2023-04-25T08:16:13;11.90;99.90
2435;DHT22;1228;51.022;6.764;2023-04-25T08:18:38;12.30;99.90
2435;DHT22;1228;51.022;6.764;2023-04-25T08:21:04;12.50;99.90
2435;DHT22;1228;51.022;6.764;2023-04-25T08:23:30;12.30;99.90
2435;DHT22;1228;51.022;6.764;2023-04-25T08:25:56;12.20;99.90
2435;DHT22;1228;51.022;6.764;2023-04-25T08:28:21;12.10;99.90
2435;DHT22;1228;51.022;6.764;2023-04-25T08:30:47;12.10;99.90
2435;DHT22;1228;51.022;6.764;2023-04-25T08:33:12;12.20;99.90
2435;DHT22;1228;51.022;6.764;2023-04-25T08:35:38;12.20;99.90
2435;DHT22;1228;51.022;6.764;2023-04-25T08:38:04;12.10;99.90
2435;DHT22;1228;51.022;6.764;2023-04-25T08:40:32;12.40;99.90
2435;DHT22;1228;51.022;6.764;2023-04-25T08:43:00;13.00;99.90
2435;DHT22;1228;51.022;6.764;2023-04-25T08:45:31;12.90;99.90
2435;DHT22;1228;51.022;6.764;2023-04-25T08:47:57;12.80;99.90
2435;DHT22;1228;51.022;6.764;2023-04-25T08:50:24;12.60;99.90
2435;DHT22;1228;51.022;6.764;2023-04-25T08:52:53;12.50;99.90
2435;DHT22;1228;51.022;6.764;2023-04-25T08:55:21;12.40;99.90
2435;DHT22;1228;51.022;6.764;2023-04-25T08:57:47;12.30;99.90
2435;DHT22;1228;51.022;6.764;2023-04-25T09:00:13;12.20;99.90
2435;DHT22;1228;51.022;6.764;2023-04-25T09:02:40;12.10;99.90
2435;DHT22;1228;51.022;6.764;2023-04-25T09:05:07;11.90;99.90
2435;DHT22;1228;51.022;6.764;2023-04-25T09:07:35;11.90;99.90
2435;DHT22;1228;51.022;6.764;2023-04-25T09:10:00;12.00;99.90
2435;DHT22;1228;51.022;6.764;2023-04-25T09:12:29;12.30;99.90
2435;DHT22;1228;51.022;6.764;2023-04-25T09:15:03;12.60;99.90
2435;DHT22;1228;51.022;6.764;2023-04-25T09:17:29;12.70;99.90
2435;DHT22;1228;51.022;6.764;2023-04-25T09:19:55;12.80;99.90
2435;DHT22;1228;51.022;6.764;2023-04-25T09:22:30;12.70;99.90
2435;DHT22;1228;51.022;6.764;2023-04-25T09:24:56;12.80;99.90
2435;DHT22;1228;51.022;6.764;2023-04-25T09:27:21;12.50;99.90
2435;DHT22;1228;51.022;6.764;2023-04-25T09:29:48;12.50;99.90
2435;DHT22;1228;51.022;6.764;2023-04-25T09:32:22;12.40;99.90
2435;DHT22;1228;51.022;6.764;2023-04-25T09:34:56;12.50;99.90
2435;DHT22;1228;51.022;6.764;2023-04-25T09:37:24;12.50;99.90
2435;DHT22;1228;51.022;6.764;2023-04-25T09:39:52;12.60;99.90
2435;DHT22;1228;51.022;6.764;2023-04-25T09:42:22;12.30;99.90
2435;DHT22;1228;51.022;6.764;2023-04-25T09:44:51;12.10;99.90
2435;DHT22;1228;51.022;6.764;2023-04-25T09:47:16;11.80;99.90
2435;DHT22;1228;51.022;6.764;2023-04-25T09:49:43;11.40;99.90
2435;DHT22;1228;51.022;6.764;2023-04-25T09:52:17;11.30;99.90
2435;DHT22;1228;51.022;6.764;2023-04-25T09:54:44;11.20;99.90
2435;DHT22;1228;51.022;6.764;2023-04-25T09:57:10;11.00;99.90
2435;DHT22;1228;51.022;6.764;2023-04-25T09:59:39;11.00;99.90
2435;DHT22;1228;51.022;6.764;2023-04-25T10:02:07;11.10;99.90
2435;DHT22;1228;51.022;6.764;2023-04-25T10:04:34;11.20;99.90
2435;DHT22;1228;51.022;6.764;2023-04-25T10:07:02;11.20;99.90
2435;DHT22;1228;51.022;6.764;2023-04-25T10:09:29;11.50;99.90
2435;DHT22;1228;51.022;6.764;2023-04-25T10:11:59;12.10;99.90
2435;DHT22;1228;51.022;6.764;2023-04-25T10:14:26;12.60;99.90
2435;DHT22;1228;51.022;6.764;2023-04-25T10:16:52;12.90;99.90
2435;DHT22;1228;51.022;6.764;2023-04-25T10:19:20;13.10;99.90
2435;DHT22;1228;51.022;6.764;2023-04-25T10:22:13;13.70;99.90
2435;DHT22;1228;51.022;6.764;2023-04-25T10:24:37;14.00;99.90
2435;DHT22;1228;51.022;6.764;2023-04-25T10:27:04;14.50;99.90
2435;DHT22;1228;51.022;6.764;2023-04-25T10:29:30;14.20;99.90
2435;DHT22;1228;51.022;6.764;2023-04-25T10:31:56;13.60;99.90
2435;DHT22;1228;51.022;6.764;2023-04-25T10:34:39;12.90;99.90
2435;DHT22;1228;51.022;6.764;2023-04-25T10:37:09;12.20;99.90
2435;DHT22;1228;51.022;6.764;2023-04-25T10:39:35;11.60;99.90
2435;DHT22;1228;51.022;6.764;2023-04-25T10:42:02;11.30;99.90
2435;DHT22;1228;51.022;6.764;2023-04-25T10:44:29;11.20;99.90
2435;DHT22;1228;51.022;6.764;2023-04-25T10:46:59;11.00;99.90
2435;DHT22;1228;51.022;6.764;2023-04-25T10:49:36;10.90;99.90
2435;DHT22;1228;51.022;6.764;2023-04-25T10:54:47;11.20;99.90
2435;DHT22;1228;51.022;6.764;2023-04-25T10:57:53;11.30;99.90
2435;DHT22;1228;51.022;6.764;2023-04-25T11:00:19;11.60;99.90
2435;DHT22;1228;51.022;6.764;2023-04-25T11:02:51;11.90;99.90
2435;DHT22;1228;51.022;6.764;2023-04-25T11:07:55;12.30;99.90
2435;DHT22;1228;51.022;6.764;2023-04-25T11:10:32;12.30;99.90
2435;DHT22;1228;51.022;6.764;2023-04-25T11:12:58;12.60;99.90
2435;DHT22;1228;51.022;6.764;2023-04-25T11:15:25;13.00;99.90
2435;DHT22;1228;51.022;6.764;2023-04-25T11:17:52;13.60;99.90
2435;DHT22;1228;51.022;6.764;2023-04-25T11:20:18;13.60;99.90
2435;DHT22;1228;51.022;6.764;2023-04-25T11:22:45;13.80;99.90
2435;DHT22;1228;51.022;6.764;2023-04-25T11:25:12;13.70;99.90
2435;DHT22;1228;51.022;6.764;2023-04-25T11:27:54;13.60;99.90
2435;DHT22;1228;51.022;6.764;2023-04-25T11:30:22;13.80;99.90
2435;DHT22;1228;51.022;6.764;2023-04-25T11:32:47;13.80;99.90
2435;DHT22;1228;51.022;6.764;2023-04-25T11:35:13;13.70;99.90
2435;DHT22;1228;51.022;6.764;2023-04-25T11:37:39;13.60;99.90
2435;DHT22;1228;51.022;6.764;2023-04-25T11:40:06;13.80;99.90
2435;DHT22;1228;51.022;6.764;2023-04-25T11:42:32;14.30;99.90
2435;DHT22;1228;51.022;6.764;2023-04-25T11:44:59;14.80;99.90
2435;DHT22;1228;51.022;6.764;2023-04-25T11:47:31;15.30;99.90
2435;DHT22;1228;51.022;6.764;2023-04-25T11:50:01;16.00;99.90
2435;DHT22;1228;51.022;6.764;2023-04-25T11:52:37;16.00;99.90
2435;DHT22;1228;51.022;6.764;2023-04-25T11:55:07;16.20;99.90
2435;DHT22;1228;51.022;6.764;2023-04-25T11:57:33;16.40;99.90
2435;DHT22;1228;51.022;6.764;2023-04-25T12:00:19;16.20;99.90
2435;DHT22;1228;51.022;6.764;2023-04-25T12:02:54;15.70;99.90
2435;DHT22;1228;51.022;6.764;2023-04-25T12:05:21;15.40;99.90
2435;DHT22;1228;51.022;6.764;2023-04-25T12:07:48;15.40;99.90
2435;DHT22;1228;51.022;6.764;2023-04-25T12:10:15;15.30;99.90
2435;DHT22;1228;51.022;6.764;2023-04-25T12:12:43;15.30;99.90
2435;DHT22;1228;51.022;6.764;2023-04-25T12:15:17;14.90;99.90
2435;DHT22;1228;51.022;6.764;2023-04-25T12:17:48;14.40;99.90
2435;DHT22;1228;51.022;6.764;2023-04-25T12:20:20;13.90;99.90
2435;DHT22;1228;51.022;6.764;2023-04-25T12:22:47;13.40;99.90
2435;DHT22;1228;51.022;6.764;2023-04-25T12:28:19;13.10;99.90
2435;DHT22;1228;51.022;6.764;2023-04-25T12:33:20;12.90;99.90
2435;DHT22;1228;51.022;6.764;2023-04-25T12:35:46;13.00;99.90
2435;DHT22;1228;51.022;6.764;2023-04-25T12:38:21;13.20;99.90
2435;DHT22;1228;51.022;6.764;2023-04-25T12:40:46;13.50;99.90
2435;DHT22;1228;51.022;6.764;2023-04-25T12:43:12;13.70;99.90
2435;DHT22;1228;51.022;6.764;2023-04-25T12:45:37;13.90;99.90
2435;DHT22;1228;51.022;6.764;2023-04-25T12:48:03;13.90;99.90
2435;DHT22;1228;51.022;6.764;2023-04-25T12:50:29;13.80;99.90
2435;DHT22;1228;51.022;6.764;2023-04-25T12:52:54;13.90;99.90
2435;DHT22;1228;51.022;6.764;2023-04-25T12:55:20;14.30;99.90
2435;DHT22;1228;51.022;6.764;2023-04-25T12:57:46;14.90;99.90
2435;DHT22;1228;51.022;6.764;2023-04-25T13:00:12;15.40;99.90
2435;DHT22;1228;51.022;6.764;2023-04-25T13:02:40;15.60;99.90
2435;DHT22;1228;51.022;6.764;2023-04-25T13:05:06;15.50;99.90
2435;DHT22;1228;51.022;6.764;2023-04-25T13:07:32;15.60;99.90
2435;DHT22;1228;51.022;6.764;2023-04-25T13:09:57;15.80;99.90
2435;DHT22;1228;51.022;6.764;2023-04-25T13:12:24;16.00;99.90
2435;DHT22;1228;51.022;6.764;2023-04-25T13:14:50;16.00;99.90
2435;DHT22;1228;51.022;6.764;2023-04-25T13:17:16;15.80;99.90
2435;DHT22;1228;51.022;6.764;2023-04-25T13:19:42;16.00;99.90
2435;DHT22;1228;51.022;6.764;2023-04-25T13:22:07;16.00;99.90
2435;DHT22;1228;51.022;6.764;2023-04-25T13:24:33;15.70;99.90
2435;DHT22;1228;51.022;6.764;2023-04-25T13:26:58;14.80;99.90
2435;DHT22;1228;51.022;6.764;2023-04-25T13:29:24;14.30;99.90
2435;DHT22;1228;51.022;6.764;2023-04-25T13:31:49;14.20;99.90
2435;DHT22;1228;51.022;6.764;2023-04-25T13:34:15;14.40;99.90
2435;DHT22;1228;51.022;6.764;2023-04-25T13:36:41;14.70;99.90
2435;DHT22;1228;51.022;6.764;2023-04-25T13:39:06;15.00;99.90
2435;DHT22;1228;51.022;6.764;2023-04-25T13:41:32;15.00;99.90
2435;DHT22;1228;51.022;6.764;2023-04-25T13:43:58;14.70;99.90
2435;DHT22;1228;51.022;6.764;2023-04-25T13:46:23;14.40;99.90
2435;DHT22;1228;51.022;6.764;2023-04-25T13:48:49;14.40;99.90
2435;DHT22;1228;51.022;6.764;2023-04-25T13:51:16;14.10;99.90
2435;DHT22;1228;51.022;6.764;2023-04-25T13:53:43;14.00;99.90
2435;DHT22;1228;51.022;6.764;2023-04-25T13:56:09;13.70;99.90
2435;DHT22;1228;51.022;6.764;2023-04-25T13:58:36;13.40;99.90
2435;DHT22;1228;51.022;6.764;2023-04-25T14:01:02;13.70;99.90
2435;DHT22;1228;51.022;6.764;2023-04-25T14:03:28;14.10;99.90
2435;DHT22;1228;51.022;6.764;2023-04-25T14:05:54;14.50;99.90
2435;DHT22;1228;51.022;6.764;2023-04-25T14:08:20;14.90;99.90
2435;DHT22;1228;51.022;6.764;2023-04-25T14:10:46;15.00;99.90
2435;DHT22;1228;51.022;6.764;2023-04-25T14:13:11;15.10;99.90
2435;DHT22;1228;51.022;6.764;2023-04-25T14:15:37;15.00;99.90
2435;DHT22;1228;51.022;6.764;2023-04-25T14:18:02;15.10;99.90
2435;DHT22;1228;51.022;6.764;2023-04-25T14:20:28;14.70;99.90
2435;DHT22;1228;51.022;6.764;2023-04-25T14:22:54;14.40;99.90
2435;DHT22;1228;51.022;6.764;2023-04-25T14:25:21;13.70;99.90
2435;DHT22;1228;51.022;6.764;2023-04-25T14:27:47;13.30;99.90
2435;DHT22;1228;51.022;6.764;2023-04-25T14:30:16;13.10;99.90
2435;DHT22;1228;51.022;6.764;2023-04-25T14:32:42;12.70;99.90
2435;DHT22;1228;51.022;6.764;2023-04-25T14:35:08;12.40;99.90
2435;DHT22;1228;51.022;6.764;2023-04-25T14:37:34;12.30;99.90
2435;DHT22;1228;51.022;6.764;2023-04-25T14:39:59;12.20;99.90
2435;DHT22;1228;51.022;6.764;2023-04-25T14:42:25;12.10;99.90
2435;DHT22;1228;51.022;6.764;2023-04-25T14:44:51;12.30;99.90
2435;DHT22;1228;51.022;6.764;2023-04-25T14:47:16;12.90;99.90
2435;DHT22;1228;51.022;6.764;2023-04-25T14:49:42;12.80;99.90
2435;DHT22;1228;51.022;6.764;2023-04-25T14:52:07;12.70;99.90
2435;DHT22;1228;51.022;6.764;2023-04-25T14:54:33;13.00;99.90
2435;DHT22;1228;51.022;6.764;2023-04-25T14:56:59;13.50;99.90
2435;DHT22;1228;51.022;6.764;2023-04-25T14:59:24;13.50;99.90
2435;DHT22;1228;51.022;6.764;2023-04-25T15:01:50;13.30;99.90
2435;DHT22;1228;51.022;6.764;2023-04-25T15:04:16;13.20;99.90
2435;DHT22;1228;51.022;6.764;2023-04-25T15:06:42;13.00;99.90
2435;DHT22;1228;51.022;6.764;2023-04-25T15:09:09;13.30;99.90
2435;DHT22;1228;51.022;6.764;2023-04-25T15:11:36;13.90;99.90
2435;DHT22;1228;51.022;6.764;2023-04-25T15:14:02;14.20;99.90
2435;DHT22;1228;51.022;6.764;2023-04-25T15:16:27;14.30;99.90
2435;DHT22;1228;51.022;6.764;2023-04-25T15:18:53;14.50;99.90
2435;DHT22;1228;51.022;6.764;2023-04-25T15:21:18;14.70;99.90
2435;DHT22;1228;51.022;6.764;2023-04-25T15:23:44;14.80;99.90
2435;DHT22;1228;51.022;6.764;2023-04-25T15:26:10;14.80;99.90
2435;DHT22;1228;51.022;6.764;2023-04-25T15:28:36;14.50;99.90
2435;DHT22;1228;51.022;6.764;2023-04-25T15:31:01;14.20;99.90
2435;DHT22;1228;51.022;6.764;2023-04-25T15:33:27;14.00;99.90
2435;DHT22;1228;51.022;6.764;2023-04-25T15:35:52;13.80;99.90
2435;DHT22;1228;51.022;6.764;2023-04-25T15:38:18;13.50;99.90
2435;DHT22;1228;51.022;6.764;2023-04-25T15:40:44;13.20;99.90
2435;DHT22;1228;51.022;6.764;2023-04-25T15:43:10;12.90;99.90
2435;DHT22;1228;51.022;6.764;2023-04-25T15:45:40;12.70;99.90
2435;DHT22;1228;51.022;6.764;2023-04-25T15:48:05;12.70;99.90
2435;DHT22;1228;51.022;6.764;2023-04-25T15:50:32;12.70;99.90
2435;DHT22;1228;51.022;6.764;2023-04-25T15:52:57;12.80;99.90
2435;DHT22;1228;51.022;6.764;2023-04-25T15:55:23;13.10;99.90
2435;DHT22;1228;51.022;6.764;2023-04-25T15:57:51;13.60;99.90
2435;DHT22;1228;51.022;6.764;2023-04-25T16:00:18;14.40;99.90
2435;DHT22;1228;51.022;6.764;2023-04-25T16:02:44;14.30;99.90
2435;DHT22;1228;51.022;6.764;2023-04-25T16:05:11;13.80;99.90
2435;DHT22;1228;51.022;6.764;2023-04-25T16:07:38;13.30;99.90
2435;DHT22;1228;51.022;6.764;2023-04-25T16:10:04;12.80;99.90
2435;DHT22;1228;51.022;6.764;2023-04-25T16:12:29;12.40;99.90
2435;DHT22;1228;51.022;6.764;2023-04-25T16:14:55;12.00;99.90
2435;DHT22;1228;51.022;6.764;2023-04-25T16:17:25;11.90;99.90
2435;DHT22;1228;51.022;6.764;2023-04-25T16:19:53;11.90;99.90